createdAt,value
2023-04-28T00:00:53.077Z,2.70
2023-04-28T00:03:20.056Z,2.60
2023-04-28T00:05:48.285Z,2.30
2023-04-28T00:08:15.222Z,2.00
2023-04-28T00:10:41.982Z,2.40
2023-04-28T00:13:08.747Z,2.00
2023-04-28T00:15:35.480Z,2.30
2023-04-28T00:18:02.226Z,3.30
2023-04-28T00:20:28.997Z,2.70
2023-04-28T00:22:56.989Z,1.90
2023-04-28T00:25:23.684Z,2.23
2023-04-28T00:27:50.406Z,1.53
2023-04-28T00:30:17.710Z,2.43
2023-04-28T00:32:44.473Z,3.10
2023-04-28T00:35:11.301Z,2.23
2023-04-28T00:37:38.532Z,2.20
2023-04-28T00:40:08.170Z,2.57
2023-04-28T00:42:34.894Z,2.93
2023-04-28T00:45:01.640Z,2.87
2023-04-28T00:47:28.443Z,2.70
2023-04-28T00:49:55.855Z,2.03
2023-04-28T00:52:22.540Z,1.77
2023-04-28T00:54:49.932Z,1.93
2023-04-28T00:57:18.090Z,2.33
2023-04-28T00:59:44.859Z,2.60
2023-04-28T01:02:11.606Z,1.93
2023-04-28T01:04:38.851Z,2.23
2023-04-28T01:07:05.734Z,2.00
2023-04-28T01:09:32.446Z,2.60
2023-04-28T01:11:59.146Z,2.40
2023-04-28T01:14:27.237Z,2.80
2023-04-28T01:16:54.274Z,2.43
2023-04-28T01:19:21.950Z,2.10
2023-04-28T01:21:48.792Z,2.03
2023-04-28T01:24:17.456Z,2.60
2023-04-28T01:26:44.543Z,2.40
2023-04-28T01:29:11.378Z,1.80
2023-04-28T01:31:38.263Z,2.40
2023-04-28T01:34:05.157Z,2.63
2023-04-28T01:36:31.919Z,3.20
2023-04-28T01:38:58.643Z,2.10
2023-04-28T01:41:26.808Z,2.00
2023-04-28T01:43:53.605Z,2.80
2023-04-28T01:46:20.429Z,1.47
2023-04-28T01:48:47.161Z,2.13
2023-04-28T01:51:13.902Z,2.30
2023-04-28T01:53:40.603Z,2.17
2023-04-28T01:56:07.302Z,2.17
2023-04-28T01:58:35.383Z,1.77
2023-04-28T02:01:02.078Z,2.27
2023-04-28T02:03:28.915Z,1.80
2023-04-28T02:05:55.808Z,2.40
2023-04-28T02:08:22.544Z,2.30
2023-04-28T02:10:49.296Z,2.77
2023-04-28T02:13:16.076Z,2.50
2023-04-28T02:15:44.520Z,2.27
2023-04-28T02:18:11.381Z,2.40
2023-04-28T02:20:38.060Z,3.20
2023-04-28T02:23:04.774Z,2.80
2023-04-28T02:25:31.512Z,2.80
2023-04-28T02:27:58.185Z,2.13
2023-04-28T02:30:24.953Z,1.90
2023-04-28T02:32:53.028Z,2.27
2023-04-28T02:35:19.872Z,2.10
2023-04-28T02:37:46.524Z,2.10
2023-04-28T02:40:13.627Z,2.53
2023-04-28T02:42:40.378Z,2.10
2023-04-28T02:45:07.596Z,2.40
2023-04-28T02:47:34.359Z,2.40
2023-04-28T02:50:02.539Z,2.03
2023-04-28T02:52:29.298Z,1.87
2023-04-28T02:54:55.997Z,2.53
2023-04-28T02:57:23.000Z,2.50
2023-04-28T02:59:50.095Z,2.43
2023-04-28T03:02:16.838Z,2.70
2023-04-28T03:04:43.687Z,3.40
2023-04-28T03:07:11.821Z,2.83
2023-04-28T03:09:39.370Z,2.00
2023-04-28T03:12:07.318Z,2.50
2023-04-28T03:14:34.043Z,2.93
2023-04-28T03:17:00.699Z,2.43
2023-04-28T03:19:27.427Z,1.87
2023-04-28T03:21:54.114Z,2.20
2023-04-28T03:24:22.200Z,1.80
2023-04-28T03:26:48.975Z,2.73
2023-04-28T03:29:15.672Z,1.97
2023-04-28T03:31:42.335Z,2.73
2023-04-28T03:34:09.094Z,1.87
2023-04-28T03:36:35.968Z,2.93
2023-04-28T03:39:02.682Z,1.97
2023-04-28T03:41:30.722Z,1.77
2023-04-28T03:43:57.459Z,2.70
2023-04-28T03:46:24.309Z,2.33
2023-04-28T03:48:51.060Z,2.60
2023-04-28T03:51:17.828Z,3.17
2023-04-28T03:53:44.542Z,2.10
2023-04-28T03:56:11.256Z,2.27
2023-04-28T03:58:39.305Z,2.73
2023-04-28T04:01:06.078Z,2.90
2023-04-28T04:03:32.989Z,2.67
2023-04-28T04:05:59.869Z,3.30
2023-04-28T04:08:26.620Z,2.73
2023-04-28T04:10:53.332Z,2.57
2023-04-28T04:13:20.097Z,2.90
2023-04-28T04:15:48.225Z,3.10
2023-04-28T04:18:15.038Z,2.70
2023-04-28T04:20:41.772Z,2.80
2023-04-28T04:23:08.475Z,3.10
2023-04-28T04:25:36.035Z,3.93
2023-04-28T04:28:02.838Z,3.23
2023-04-28T04:30:29.582Z,2.70
2023-04-28T04:32:57.865Z,3.03
2023-04-28T04:35:24.770Z,2.97
2023-04-28T04:37:51.653Z,2.97
2023-04-28T04:40:18.388Z,3.30
2023-04-28T04:42:45.098Z,3.17
2023-04-28T04:45:11.804Z,3.80
2023-04-28T04:47:38.608Z,3.73
2023-04-28T04:50:08.125Z,4.30
2023-04-28T04:52:34.964Z,3.70
2023-04-28T04:55:01.754Z,3.30
2023-04-28T04:57:28.507Z,3.90
2023-04-28T04:59:55.369Z,4.17
2023-04-28T05:02:22.250Z,3.87
2023-04-28T05:04:49.041Z,4.00
2023-04-28T05:07:17.170Z,3.50
2023-04-28T05:09:43.842Z,5.60
2023-04-28T05:12:10.720Z,5.60
2023-04-28T05:14:37.423Z,4.93
2023-04-28T05:17:04.129Z,4.03
2023-04-28T05:19:30.774Z,4.40
2023-04-28T05:21:57.538Z,5.93
2023-04-28T05:24:25.631Z,3.90
2023-04-28T05:26:53.050Z,4.20
2023-04-28T05:29:19.696Z,4.43
2023-04-28T05:31:46.394Z,5.10
2023-04-28T05:34:13.128Z,5.57
2023-04-28T05:36:40.069Z,4.10
2023-04-28T05:39:06.761Z,4.87
2023-04-28T05:41:35.785Z,5.23
2023-04-28T05:44:02.481Z,4.60
2023-04-28T05:46:31.118Z,5.60
2023-04-28T05:48:58.213Z,4.93
2023-04-28T05:51:25.088Z,5.40
2023-04-28T05:53:51.757Z,5.67
2023-04-28T05:56:18.743Z,5.63
2023-04-28T05:58:46.867Z,5.33
2023-04-28T06:01:13.682Z,6.10
2023-04-28T06:03:47.330Z,5.73
2023-04-28T06:08:04.277Z,5.60
2023-04-28T06:09:49.336Z,5.60
2023-04-28T06:12:15.994Z,5.73
2023-04-28T06:14:44.021Z,5.30
2023-04-28T06:17:10.792Z,5.27
2023-04-28T06:19:37.527Z,5.50
2023-04-28T06:22:04.206Z,5.10
2023-04-28T06:24:30.935Z,5.33
2023-04-28T06:26:57.662Z,6.40
2023-04-28T06:29:24.343Z,7.20
2023-04-28T06:31:52.455Z,5.53
2023-04-28T06:34:19.446Z,5.57
2023-04-28T06:36:46.159Z,7.83
2023-04-28T06:39:12.833Z,8.13
2023-04-28T06:41:39.523Z,6.43
2023-04-28T06:44:06.189Z,7.17
2023-04-28T06:46:32.925Z,6.30
2023-04-28T06:49:00.967Z,6.80
2023-04-28T06:51:27.643Z,6.60
2023-04-28T06:53:54.474Z,6.07
2023-04-28T06:56:21.170Z,5.97
2023-04-28T06:58:47.874Z,6.60
2023-04-28T07:01:14.687Z,6.73
2023-04-28T07:03:41.506Z,6.60
2023-04-28T07:06:09.924Z,5.57
2023-04-28T07:08:36.801Z,7.20
2023-04-28T07:11:03.547Z,5.60
2023-04-28T07:13:30.311Z,8.00
2023-04-28T07:15:57.043Z,5.93
2023-04-28T07:18:23.851Z,6.87
2023-04-28T07:20:51.151Z,6.47
2023-04-28T07:23:19.199Z,7.10
2023-04-28T07:25:45.837Z,6.87
2023-04-28T07:28:13.390Z,7.47
2023-04-28T07:30:40.203Z,6.03
2023-04-28T07:33:06.943Z,6.83
2023-04-28T07:35:33.762Z,7.13
2023-04-28T07:38:00.460Z,6.43
2023-04-28T07:40:28.442Z,8.00
2023-04-28T07:42:55.106Z,7.43
2023-04-28T07:45:21.782Z,6.17
2023-04-28T07:47:48.519Z,6.50
2023-04-28T07:50:15.226Z,5.37
2023-04-28T07:52:42.002Z,4.27
2023-04-28T07:55:09.030Z,8.00
2023-04-28T07:57:37.156Z,7.90
2023-04-28T08:00:04.723Z,9.10
2023-04-28T08:02:31.456Z,8.00
2023-04-28T08:04:58.586Z,8.57
2023-04-28T08:07:25.520Z,7.90
2023-04-28T08:09:53.717Z,8.80
2023-04-28T08:12:20.648Z,7.73
2023-04-28T08:14:48.666Z,7.70
2023-04-28T08:17:15.518Z,8.60
2023-04-28T08:19:42.199Z,8.77
2023-04-28T08:22:08.839Z,8.80
2023-04-28T08:24:35.513Z,7.83
2023-04-28T08:27:02.306Z,9.47
2023-04-28T08:29:29.186Z,9.37
2023-04-28T08:31:57.480Z,8.47
2023-04-28T08:34:24.389Z,9.80
2023-04-28T08:36:51.856Z,9.00
2023-04-28T08:39:18.577Z,8.00
2023-04-28T08:41:45.230Z,8.63
2023-04-28T08:44:12.039Z,9.17
2023-04-28T08:46:41.034Z,8.60
2023-04-28T08:49:13.305Z,10.00
2023-04-28T08:51:45.273Z,8.20
2023-04-28T08:54:25.628Z,10.20
2023-04-28T08:56:54.078Z,10.03
2023-04-28T08:59:21.472Z,10.10
2023-04-28T09:01:48.879Z,11.07
2023-04-28T09:04:18.732Z,9.33
2023-04-28T09:06:46.298Z,7.57
2023-04-28T09:09:23.361Z,8.90
2023-04-28T09:11:54.260Z,9.70
2023-04-28T09:14:21.137Z,8.60
2023-04-28T09:16:47.850Z,9.37
2023-04-28T09:19:16.585Z,8.90
2023-04-28T09:21:47.507Z,9.00
2023-04-28T09:24:29.573Z,9.20
2023-04-28T09:26:56.310Z,8.50
2023-04-28T09:29:23.186Z,8.80
2023-04-28T09:31:49.979Z,8.50
2023-04-28T09:34:18.138Z,7.87
2023-04-28T09:36:44.969Z,6.83
2023-04-28T09:39:11.681Z,7.43
2023-04-28T09:41:39.444Z,7.97
2023-04-28T09:44:13.927Z,8.60
2023-04-28T09:46:41.249Z,7.97
2023-04-28T09:49:08.230Z,7.60
2023-04-28T09:51:36.442Z,8.10
2023-04-28T09:54:03.969Z,6.50
2023-04-28T09:56:32.900Z,7.50
2023-04-28T09:59:01.213Z,7.17
2023-04-28T10:01:32.414Z,7.10
2023-04-28T10:04:00.776Z,7.50
2023-04-28T10:06:28.509Z,6.93
2023-04-28T10:08:56.885Z,6.67
2023-04-28T10:11:25.382Z,7.93
2023-04-28T10:13:53.856Z,7.50
2023-04-28T10:16:20.866Z,7.17
2023-04-28T10:18:47.675Z,7.20
2023-04-28T10:21:17.561Z,8.00
2023-04-28T10:24:05.326Z,6.50
2023-04-28T10:27:01.965Z,7.60
2023-04-28T10:29:31.127Z,7.63
2023-04-28T10:32:21.190Z,8.70
2023-04-28T10:34:48.314Z,8.90
2023-04-28T10:37:15.711Z,9.10
2023-04-28T10:40:22.224Z,8.63
2023-04-28T10:42:52.256Z,7.00
2023-04-28T10:46:00.104Z,8.03
2023-04-28T10:49:06.464Z,7.30
2023-04-28T10:51:35.949Z,7.40
2023-04-28T10:54:18.608Z,7.53
2023-04-28T10:57:20.914Z,6.90
2023-04-28T10:59:48.678Z,6.40
2023-04-28T11:02:48.866Z,7.50
2023-04-28T11:05:17.530Z,7.20
2023-04-28T11:08:26.273Z,7.87
2023-04-28T11:11:12.262Z,8.20
2023-04-28T11:13:42.375Z,7.70
2023-04-28T11:16:09.607Z,8.20
2023-04-28T11:18:49.893Z,8.90
2023-04-28T11:21:16.770Z,8.60
2023-04-28T11:23:44.137Z,6.97
2023-04-28T11:26:10.912Z,8.70
2023-04-28T11:28:48.748Z,8.03
2023-04-28T11:31:17.079Z,8.27
2023-04-28T11:33:45.971Z,7.33
2023-04-28T11:36:26.453Z,9.40
2023-04-28T11:38:53.169Z,8.90
2023-04-28T11:41:19.918Z,8.07
2023-04-28T11:43:47.626Z,8.63
2023-04-28T11:46:20.570Z,8.87
2023-04-28T11:48:47.948Z,7.50
2023-04-28T11:51:32.728Z,7.80
2023-04-28T11:53:59.971Z,8.30
2023-04-28T11:56:26.835Z,7.90
2023-04-28T11:59:01.886Z,8.10
2023-04-28T12:01:32.393Z,8.77
2023-04-28T12:03:59.494Z,9.00
2023-04-28T12:06:26.361Z,8.60
2023-04-28T12:08:53.034Z,7.33
2023-04-28T12:11:20.357Z,8.23
2023-04-28T12:14:05.636Z,9.13
2023-04-28T12:16:41.637Z,8.30
2023-04-28T12:19:08.318Z,7.73
2023-04-28T12:21:36.289Z,8.23
2023-04-28T12:24:15.932Z,7.63
2023-04-28T12:26:42.686Z,7.60
2023-04-28T12:29:09.336Z,7.87
2023-04-28T12:31:49.508Z,8.30
2023-04-28T12:34:16.240Z,8.60
2023-04-28T12:36:42.942Z,8.40
2023-04-28T12:39:13.740Z,8.67
2023-04-28T12:41:40.420Z,8.70
2023-04-28T12:44:07.104Z,8.50
2023-04-28T12:46:33.815Z,8.70
2023-04-28T12:49:02.245Z,8.97
2023-04-28T12:51:29.192Z,9.10
2023-04-28T12:53:58.027Z,10.50
2023-04-28T12:56:24.704Z,10.80
2023-04-28T12:58:51.392Z,9.50
2023-04-28T13:01:18.071Z,10.10
2023-04-28T13:03:45.033Z,10.70
2023-04-28T13:06:13.259Z,10.87
2023-04-28T13:08:39.918Z,9.30
2023-04-28T13:11:16.083Z,11.90
2023-04-28T13:13:48.808Z,11.47
2023-04-28T13:16:15.677Z,10.80
2023-04-28T13:18:42.420Z,11.00
2023-04-28T13:21:09.143Z,9.70
2023-04-28T13:23:37.170Z,9.97
2023-04-28T13:26:04.020Z,11.47
2023-04-28T13:28:30.725Z,12.83
2023-04-28T13:30:57.378Z,10.30
2023-04-28T13:33:24.117Z,12.17
2023-04-28T13:35:50.796Z,12.03
2023-04-28T13:38:17.487Z,10.17
2023-04-28T13:40:45.619Z,9.80
2023-04-28T13:43:12.368Z,10.53
2023-04-28T13:45:39.206Z,11.00
2023-04-28T13:48:06.134Z,10.47
2023-04-28T13:50:32.892Z,10.17
2023-04-28T13:52:59.559Z,10.40
2023-04-28T13:55:26.423Z,9.70
2023-04-28T13:57:54.554Z,12.17
2023-04-28T14:00:21.352Z,11.20
2023-04-28T14:02:48.376Z,10.03
2023-04-28T14:05:15.401Z,11.07
2023-04-28T14:07:42.148Z,12.83
2023-04-28T14:10:09.803Z,11.23
2023-04-28T14:12:36.504Z,9.77
2023-04-28T14:15:05.174Z,9.50
2023-04-28T14:17:31.960Z,10.30
2023-04-28T14:19:58.675Z,11.57
2023-04-28T14:22:25.365Z,9.87
2023-04-28T14:24:52.005Z,11.30
2023-04-28T14:27:18.666Z,10.70
2023-04-28T14:29:45.349Z,11.10
2023-04-28T14:32:13.409Z,10.00
2023-04-28T14:34:40.078Z,10.47
2023-04-28T14:37:06.813Z,9.93
2023-04-28T14:39:33.571Z,10.83
2023-04-28T14:42:00.211Z,9.53
2023-04-28T14:44:26.875Z,8.13
2023-04-28T14:46:53.628Z,9.60
2023-04-28T14:49:21.639Z,8.87
2023-04-28T14:51:49.133Z,12.20
2023-04-28T14:54:15.807Z,12.70
2023-04-28T14:56:42.470Z,11.23
2023-04-28T14:59:09.145Z,8.57
2023-04-28T15:01:35.932Z,8.80
2023-04-28T15:04:02.856Z,9.73
2023-04-28T15:06:31.155Z,11.10
2023-04-28T15:08:57.821Z,11.00
2023-04-28T15:11:24.476Z,10.73
2023-04-28T15:13:51.158Z,10.60
2023-04-28T15:16:18.152Z,9.53
2023-04-28T15:18:45.013Z,10.20
2023-04-28T15:21:11.750Z,11.23
2023-04-28T15:23:39.752Z,9.50
2023-04-28T15:26:06.506Z,7.57
2023-04-28T15:28:33.197Z,12.40
2023-04-28T15:30:59.873Z,12.17
2023-04-28T15:33:27.796Z,11.50
2023-04-28T15:35:54.540Z,9.80
2023-04-28T15:38:21.220Z,11.83
2023-04-28T15:40:49.238Z,10.27
2023-04-28T15:43:15.906Z,9.70
2023-04-28T15:45:43.386Z,12.23
2023-04-28T15:48:10.153Z,11.90
2023-04-28T15:50:36.909Z,10.03
2023-04-28T15:53:03.596Z,10.60
2023-04-28T15:55:30.298Z,11.67
2023-04-28T15:57:58.310Z,11.87
2023-04-28T16:00:25.017Z,11.70
2023-04-28T16:02:51.845Z,11.73
2023-04-28T16:05:19.090Z,12.47
2023-04-28T16:07:45.816Z,9.37
2023-04-28T16:10:14.185Z,10.53
2023-04-28T16:12:41.541Z,11.07
2023-04-28T16:15:11.537Z,11.03
2023-04-28T16:17:38.804Z,9.80
2023-04-28T16:20:07.305Z,9.53
2023-04-28T16:22:34.806Z,8.60
2023-04-28T16:25:02.697Z,12.33
2023-04-28T16:27:29.595Z,10.20
2023-04-28T16:29:56.407Z,11.73
2023-04-28T16:32:24.392Z,10.17
2023-04-28T16:34:51.279Z,11.10
2023-04-28T16:37:18.121Z,11.10
2023-04-28T16:39:44.835Z,10.23
2023-04-28T16:42:11.765Z,8.27
2023-04-28T16:44:38.393Z,10.27
2023-04-28T16:47:05.066Z,9.60
2023-04-28T16:49:33.082Z,10.70
2023-04-28T16:52:01.215Z,11.27
2023-04-28T16:54:28.634Z,11.43
2023-04-28T16:56:55.433Z,9.63
2023-04-28T16:59:22.941Z,10.00
2023-04-28T17:01:49.656Z,10.23
2023-04-28T17:04:16.859Z,11.80
2023-04-28T17:06:45.226Z,14.03
2023-04-28T17:09:12.305Z,11.40
2023-04-28T17:11:39.076Z,11.90
2023-04-28T17:14:05.775Z,10.80
2023-04-28T17:16:32.768Z,11.10
2023-04-28T17:18:59.673Z,11.77
2023-04-28T17:21:26.556Z,9.30
2023-04-28T17:23:55.116Z,9.87
2023-04-28T17:26:21.859Z,10.63
2023-04-28T17:28:48.631Z,9.60
2023-04-28T17:31:15.339Z,9.47
2023-04-28T17:33:42.161Z,11.03
2023-04-28T17:36:08.900Z,9.80
2023-04-28T17:38:35.846Z,9.10
2023-04-28T17:41:03.932Z,11.50
2023-04-28T17:43:30.682Z,11.63
2023-04-28T17:45:57.379Z,9.60
2023-04-28T17:48:24.116Z,10.80
2023-04-28T17:50:50.888Z,8.97
2023-04-28T17:53:17.600Z,9.60
2023-04-28T17:55:44.392Z,10.87
2023-04-28T17:58:12.430Z,11.70
2023-04-28T18:00:39.184Z,10.97
2023-04-28T18:03:05.916Z,10.93
2023-04-28T18:05:34.330Z,9.40
2023-04-28T18:08:02.924Z,11.33
2023-04-28T18:10:29.837Z,9.27
2023-04-28T18:12:56.871Z,12.30
2023-04-28T18:15:25.057Z,9.70
2023-04-28T18:17:51.969Z,9.63
2023-04-28T18:20:19.146Z,8.67
2023-04-28T18:22:45.849Z,11.60
2023-04-28T18:25:13.248Z,11.13
2023-04-28T18:27:40.009Z,10.00
2023-04-28T18:30:08.175Z,13.60
2023-04-28T18:32:36.244Z,8.83
2023-04-28T18:35:03.179Z,12.20
2023-04-28T18:37:29.906Z,12.20
2023-04-28T18:39:56.659Z,12.47
2023-04-28T18:42:23.406Z,12.23
2023-04-28T18:44:53.857Z,12.17
2023-04-28T18:47:20.615Z,11.87
2023-04-28T18:49:48.970Z,11.30
2023-04-28T18:52:15.858Z,14.80
2023-04-28T18:54:42.936Z,11.40
2023-04-28T18:57:09.976Z,13.63
2023-04-28T18:59:36.724Z,9.90
2023-04-28T19:02:03.690Z,10.60
2023-04-28T19:04:30.529Z,9.83
2023-04-28T19:06:58.646Z,8.07
2023-04-28T19:09:25.422Z,8.63
2023-04-28T19:11:52.138Z,14.23
2023-04-28T19:14:19.168Z,9.60
2023-04-28T19:16:45.864Z,10.33
2023-04-28T19:19:12.619Z,11.10
2023-04-28T19:21:41.956Z,9.57
2023-04-28T19:24:10.093Z,8.80
2023-04-28T19:26:36.767Z,11.63
2023-04-28T19:29:03.438Z,9.20
2023-04-28T19:31:30.559Z,11.47
2023-04-28T19:33:57.790Z,10.70
2023-04-28T19:36:24.830Z,8.87
2023-04-28T19:38:51.761Z,9.20
2023-04-28T19:41:19.833Z,8.87
2023-04-28T19:43:46.579Z,9.33
2023-04-28T19:46:13.334Z,11.10
2023-04-28T19:48:40.124Z,12.77
2023-04-28T19:51:06.797Z,12.63
2023-04-28T19:53:33.513Z,13.60
2023-04-28T19:56:00.284Z,11.90
2023-04-28T19:58:28.300Z,12.50
2023-04-28T20:00:54.965Z,14.73
2023-04-28T20:03:21.827Z,19.10
2023-04-28T20:05:48.658Z,12.40
2023-04-28T20:08:16.088Z,17.47
2023-04-28T20:10:42.831Z,11.63
2023-04-28T20:13:09.587Z,15.97
2023-04-28T20:15:37.770Z,12.37
2023-04-28T20:18:04.539Z,11.03
2023-04-28T20:20:31.341Z,8.87
2023-04-28T20:22:58.031Z,12.10
2023-04-28T20:25:24.806Z,14.60
2023-04-28T20:27:51.478Z,12.37
2023-04-28T20:30:18.241Z,14.80
2023-04-28T20:32:46.262Z,14.60
2023-04-28T20:35:13.077Z,13.40
2023-04-28T20:37:39.816Z,15.17
2023-04-28T20:40:08.100Z,14.67
2023-04-28T20:42:34.735Z,13.57
2023-04-28T20:45:01.507Z,12.07
2023-04-28T20:47:28.313Z,12.87
2023-04-28T20:49:56.449Z,12.30
2023-04-28T20:52:23.124Z,16.13
2023-04-28T20:54:49.875Z,11.50
2023-04-28T20:57:16.628Z,12.93
2023-04-28T20:59:43.311Z,13.80
2023-04-28T21:02:10.079Z,12.47
2023-04-28T21:04:36.871Z,13.57
2023-04-28T21:07:05.026Z,14.53
2023-04-28T21:09:31.721Z,14.77
2023-04-28T21:11:58.440Z,16.93
2023-04-28T21:14:25.136Z,14.00
2023-04-28T21:16:51.924Z,14.37
2023-04-28T21:19:18.858Z,16.10
2023-04-28T21:21:45.582Z,17.33
2023-04-28T21:24:13.594Z,17.90
2023-04-28T21:26:40.286Z,15.53
2023-04-28T21:29:07.041Z,18.33
2023-04-28T21:31:33.736Z,14.73
2023-04-28T21:34:00.529Z,19.37
2023-04-28T21:36:27.767Z,15.90
2023-04-28T21:38:54.513Z,14.60
2023-04-28T21:41:22.535Z,16.50
2023-04-28T21:43:49.309Z,14.23
2023-04-28T21:46:16.144Z,13.40
2023-04-28T21:48:42.859Z,16.03
2023-04-28T21:51:09.558Z,15.17
2023-04-28T21:53:36.414Z,15.77
2023-04-28T21:56:03.272Z,17.40
2023-04-28T21:58:31.384Z,17.70
2023-04-28T22:00:59.064Z,19.57
2023-04-28T22:03:26.349Z,16.87
2023-04-28T22:05:53.192Z,18.30
2023-04-28T22:08:19.955Z,18.87
2023-04-28T22:10:46.908Z,14.47
2023-04-28T22:13:13.797Z,20.57
2023-04-28T22:15:41.897Z,14.03
2023-04-28T22:18:08.631Z,14.67
2023-04-28T22:20:35.440Z,14.77
2023-04-28T22:23:02.150Z,18.07
2023-04-28T22:25:28.847Z,15.53
2023-04-28T22:27:55.725Z,17.03
2023-04-28T22:30:24.990Z,17.77
2023-04-28T22:32:53.975Z,16.50
2023-04-28T22:35:20.740Z,17.80
2023-04-28T22:37:47.462Z,20.37
2023-04-28T22:40:14.381Z,19.20
2023-04-28T22:42:42.247Z,13.10
2023-04-28T22:45:10.871Z,19.80
2023-04-28T22:47:38.366Z,18.40
2023-04-28T22:50:08.637Z,23.53
2023-04-28T22:52:36.000Z,20.60
2023-04-28T22:55:02.761Z,18.83
2023-04-28T22:57:29.540Z,20.27
2023-04-28T22:59:56.264Z,15.57
2023-04-28T23:02:23.443Z,16.20
2023-04-28T23:04:50.689Z,19.83
2023-04-28T23:07:19.223Z,19.80
2023-04-28T23:09:45.983Z,18.70
2023-04-28T23:12:12.835Z,19.77
2023-04-28T23:14:39.658Z,19.60
2023-04-28T23:17:06.388Z,19.60
2023-04-28T23:19:33.502Z,19.43
2023-04-28T23:22:00.206Z,18.60
2023-04-28T23:24:28.309Z,19.47
2023-04-28T23:26:54.993Z,18.10
2023-04-28T23:29:21.646Z,19.40
2023-04-28T23:31:48.335Z,19.13
2023-04-28T23:34:14.998Z,18.07
2023-04-28T23:36:41.703Z,18.30
2023-04-28T23:39:08.353Z,17.67
2023-04-28T23:41:36.338Z,17.60
2023-04-28T23:44:03.006Z,18.43
2023-04-28T23:46:29.664Z,18.40
2023-04-28T23:48:56.365Z,18.37
2023-04-28T23:51:23.094Z,19.07
2023-04-28T23:53:49.775Z,18.30
2023-04-28T23:56:16.488Z,16.70
2023-04-28T23:58:44.477Z,19.37
